createdAt,value
2018-03-03T00:00:43.909Z,48.78
2018-03-03T00:03:12.525Z,54.95
2018-03-03T00:05:40.025Z,51.63
2018-03-03T00:08:07.538Z,52.30
2018-03-03T00:10:35.806Z,52.80
2018-03-03T00:13:03.311Z,53.10
2018-03-03T00:15:31.620Z,54.83
2018-03-03T00:17:59.100Z,56.08
2018-03-03T00:20:26.641Z,54.28
2018-03-03T00:22:54.906Z,54.70
2018-03-03T00:25:22.436Z,57.17
2018-03-03T00:27:49.987Z,52.85
2018-03-03T00:30:17.497Z,59.75
2018-03-03T00:32:45.567Z,56.95
2018-03-03T00:35:15.268Z,59.43
2018-03-03T00:37:43.573Z,59.38
2018-03-03T00:40:11.238Z,64.20
2018-03-03T00:42:38.817Z,61.63
2018-03-03T00:45:06.335Z,58.00
2018-03-03T00:47:33.854Z,62.07
2018-03-03T00:50:01.367Z,65.77
2018-03-03T00:52:28.871Z,63.17
2018-03-03T00:54:57.018Z,59.57
2018-03-03T00:57:24.571Z,62.65
2018-03-03T00:59:52.086Z,59.92
2018-03-03T01:02:20.680Z,66.18
2018-03-03T01:04:48.296Z,61.70
2018-03-03T01:07:15.810Z,61.67
2018-03-03T01:09:44.112Z,64.55
2018-03-03T01:12:12.380Z,64.57
2018-03-03T01:14:42.628Z,70.10
2018-03-03T01:17:11.224Z,70.68
2018-03-03T01:19:39.517Z,62.58
2018-03-03T01:22:07.868Z,67.37
2018-03-03T01:24:35.376Z,68.22
2018-03-03T01:27:03.819Z,70.18
2018-03-03T01:29:33.489Z,64.20
2018-03-03T01:32:00.996Z,69.12
2018-03-03T01:34:28.917Z,70.43
2018-03-03T01:36:56.491Z,63.85
2018-03-03T01:39:23.968Z,68.20
2018-03-03T01:41:51.572Z,70.87
2018-03-03T01:44:19.097Z,66.32
2018-03-03T01:46:46.632Z,69.12
2018-03-03T01:49:14.226Z,73.50
2018-03-03T01:51:42.594Z,69.78
2018-03-03T01:54:10.203Z,72.10
2018-03-03T01:56:37.968Z,71.65
2018-03-03T01:59:06.399Z,66.62
2018-03-03T02:04:19.886Z,65.45
2018-03-03T02:06:47.438Z,68.53
2018-03-03T02:09:15.971Z,67.68
2018-03-03T02:11:43.532Z,62.55
2018-03-03T02:14:11.050Z,64.45
2018-03-03T02:16:38.540Z,64.40
2018-03-03T02:19:11.210Z,67.90
2018-03-03T02:21:43.536Z,65.82
2018-03-03T02:24:11.154Z,65.82
2018-03-03T02:26:44.932Z,68.93
2018-03-03T02:29:12.460Z,66.07
2018-03-03T02:31:40.092Z,69.93
2018-03-03T02:34:08.067Z,67.97
2018-03-03T02:36:35.571Z,67.15
2018-03-03T02:39:03.104Z,67.82
2018-03-03T02:41:30.714Z,69.47
2018-03-03T02:43:58.574Z,69.35
2018-03-03T02:46:26.085Z,67.65
2018-03-03T02:48:56.434Z,69.87
2018-03-03T02:51:24.073Z,66.90
2018-03-03T02:53:51.593Z,67.87
2018-03-03T02:56:20.134Z,62.30
2018-03-03T02:58:47.720Z,68.80
2018-03-03T03:01:15.257Z,70.45
2018-03-03T03:03:42.808Z,70.43
2018-03-03T03:06:10.327Z,66.72
2018-03-03T03:08:37.867Z,71.47
2018-03-03T03:11:05.457Z,70.37
2018-03-03T03:13:33.053Z,73.40
2018-03-03T03:16:02.219Z,73.18
2018-03-03T03:18:29.934Z,68.65
2018-03-03T03:20:57.469Z,68.73
2018-03-03T03:23:25.003Z,68.23
2018-03-03T03:25:53.365Z,71.77
2018-03-03T03:28:21.022Z,72.27
2018-03-03T03:30:48.637Z,73.62
2018-03-03T03:33:16.173Z,75.70
2018-03-03T03:35:43.806Z,66.40
2018-03-03T03:38:11.330Z,74.57
2018-03-03T03:40:40.084Z,74.32
2018-03-03T03:43:07.626Z,74.25
2018-03-03T03:45:35.923Z,74.72
2018-03-03T03:48:03.470Z,74.97
2018-03-03T03:50:31.357Z,76.55
2018-03-03T03:52:59.709Z,73.28
2018-03-03T03:55:29.651Z,72.93
2018-03-03T03:57:58.082Z,75.90
2018-03-03T04:00:26.415Z,68.55
2018-03-03T04:02:55.472Z,72.17
2018-03-03T04:05:23.753Z,79.47
2018-03-03T04:07:54.796Z,72.78
2018-03-03T04:10:22.625Z,69.78
2018-03-03T04:12:50.144Z,70.00
2018-03-03T04:24:33.870Z,67.27
2018-03-03T04:35:28.726Z,62.33
2018-03-03T04:37:57.011Z,65.82
2018-03-03T04:40:25.273Z,62.88
2018-03-03T04:42:56.789Z,68.00
2018-03-03T04:45:27.657Z,69.72
2018-03-03T04:47:55.178Z,65.05
2018-03-03T04:50:22.666Z,62.72
2018-03-03T04:52:55.853Z,67.57
2018-03-03T04:55:24.380Z,68.60
2018-03-03T05:03:49.267Z,69.30
2018-03-03T05:06:17.853Z,65.87
2018-03-03T05:08:56.416Z,64.95
2018-03-03T05:11:24.221Z,66.82
2018-03-03T05:14:03.941Z,68.87
2018-03-03T05:16:46.291Z,65.50
2018-03-03T05:19:37.372Z,66.95
2018-03-03T05:27:49.669Z,70.55
2018-03-03T05:30:22.933Z,68.12
2018-03-03T05:32:57.158Z,68.90
2018-03-03T05:35:46.401Z,64.80
2018-03-03T05:38:36.725Z,70.72
2018-03-03T05:47:07.629Z,71.05
2018-03-03T05:49:55.834Z,73.32
2018-03-03T05:55:53.384Z,71.43
2018-03-03T06:01:57.142Z,71.72
2018-03-03T06:04:40.612Z,72.20
2018-03-03T06:07:13.813Z,71.15
2018-03-03T06:09:41.772Z,72.77
2018-03-03T06:12:09.360Z,69.68
2018-03-03T06:14:44.681Z,67.55
2018-03-03T06:17:12.456Z,72.57
2018-03-03T06:19:47.591Z,71.82
2018-03-03T06:22:22.574Z,66.68
2018-03-03T06:24:56.533Z,71.53
2018-03-03T06:27:26.399Z,65.55
2018-03-03T06:29:56.098Z,70.55
2018-03-03T06:32:27.111Z,68.75
2018-03-03T06:34:55.770Z,72.37
2018-03-03T06:37:26.438Z,60.75
2018-03-03T06:39:56.989Z,67.25
2018-03-03T06:45:27.069Z,68.40
2018-03-03T06:47:56.365Z,69.15
2018-03-03T06:55:48.542Z,68.93
2018-03-03T06:58:16.100Z,72.57
2018-03-03T07:00:43.626Z,73.78
2018-03-03T07:03:11.121Z,75.28
2018-03-03T07:05:39.450Z,72.75
2018-03-03T07:10:40.316Z,78.03
2018-03-03T07:13:07.808Z,68.50
2018-03-03T07:15:35.294Z,67.18
2018-03-03T07:18:02.900Z,64.75
2018-03-03T07:20:38.572Z,66.65
2018-03-03T07:23:08.932Z,60.97
2018-03-03T07:25:36.602Z,66.40
2018-03-03T07:28:04.061Z,67.23
2018-03-03T07:30:32.336Z,65.53
2018-03-03T07:33:03.545Z,63.67
2018-03-03T07:35:33.924Z,64.18
2018-03-03T07:38:01.499Z,62.40
2018-03-03T07:40:29.771Z,69.53
2018-03-03T07:42:57.329Z,66.55
2018-03-03T07:45:25.573Z,66.60
2018-03-03T07:47:53.119Z,71.47
2018-03-03T07:50:23.568Z,65.10
2018-03-03T07:52:51.862Z,64.93
2018-03-03T07:55:20.118Z,65.40
2018-03-03T07:57:49.867Z,70.95
2018-03-03T08:00:17.429Z,68.85
2018-03-03T08:02:45.697Z,69.37
2018-03-03T08:05:14.409Z,61.33
2018-03-03T08:07:41.864Z,63.47
2018-03-03T08:10:09.357Z,61.37
2018-03-03T08:12:55.136Z,60.42
2018-03-03T08:21:02.387Z,63.13
2018-03-03T08:23:30.652Z,59.42
2018-03-03T08:25:58.404Z,66.32
2018-03-03T08:28:26.081Z,65.12
2018-03-03T08:30:57.392Z,62.88
2018-03-03T08:33:31.398Z,71.45
2018-03-03T08:35:59.861Z,66.35
2018-03-03T08:38:27.794Z,62.13
2018-03-03T08:40:55.917Z,63.47
2018-03-03T08:43:27.927Z,55.60
2018-03-03T08:45:56.687Z,68.57
2018-03-03T08:48:31.200Z,67.40
2018-03-03T08:50:59.402Z,66.93
2018-03-03T08:53:27.037Z,68.07
2018-03-03T08:55:57.040Z,61.17
2018-03-03T08:58:29.297Z,67.95
2018-03-03T09:00:59.938Z,66.45
2018-03-03T09:03:29.379Z,66.07
2018-03-03T09:05:59.096Z,72.95
2018-03-03T09:08:27.616Z,70.03
2018-03-03T09:10:57.071Z,66.70
2018-03-03T09:13:24.661Z,64.78
2018-03-03T09:15:56.174Z,72.20
2018-03-03T09:18:23.789Z,72.20
2018-03-03T09:20:55.409Z,72.60
2018-03-03T09:26:24.742Z,66.20
2018-03-03T09:28:54.462Z,64.53
2018-03-03T09:31:32.029Z,63.93
2018-03-03T12:57:26.175Z,64.40
2018-03-03T12:59:57.309Z,66.45
2018-03-03T13:02:25.878Z,64.05
2018-03-03T13:04:56.008Z,60.03
2018-03-03T13:07:23.541Z,64.93
2018-03-03T13:09:55.967Z,63.60
2018-03-03T13:12:26.285Z,61.42
2018-03-03T13:14:53.911Z,61.00
2018-03-03T13:23:26.196Z,61.83
2018-03-03T14:32:55.224Z,68.75
2018-03-03T14:35:26.923Z,63.67
2018-03-03T14:40:58.666Z,70.90
2018-03-03T14:43:26.324Z,71.60
2018-03-03T14:45:58.793Z,67.05
2018-03-03T14:48:26.969Z,67.90
2018-03-03T14:56:56.244Z,68.50
2018-03-03T15:05:30.410Z,71.57
2018-03-03T15:18:27.222Z,76.32
2018-03-03T15:23:55.904Z,76.30
2018-03-03T15:29:26.629Z,67.87
2018-03-03T15:31:57.341Z,68.53
2018-03-03T15:34:27.282Z,70.17
2018-03-03T15:36:55.690Z,70.03
2018-03-03T15:39:23.309Z,68.97
2018-03-03T16:01:59.274Z,68.47
2018-03-03T16:04:29.797Z,76.22
2018-03-03T16:12:55.292Z,71.35
2018-03-03T16:15:24.684Z,78.53
2018-03-03T16:17:54.811Z,76.65
2018-03-03T16:20:25.144Z,75.40
2018-03-03T16:22:55.296Z,77.00
2018-03-03T16:25:28.358Z,76.27
2018-03-03T16:30:57.538Z,73.25
2018-03-03T16:48:55.810Z,76.20
2018-03-03T17:11:24.293Z,85.85
2018-03-03T17:13:56.295Z,88.75
2018-03-03T17:19:26.939Z,82.28
2018-03-03T17:21:56.344Z,87.82
2018-03-03T17:24:27.283Z,83.35
2018-03-03T17:26:55.777Z,84.95
2018-03-03T17:29:23.332Z,84.72
2018-03-03T17:31:51.582Z,82.12
2018-03-03T17:34:19.163Z,77.57
2018-03-03T17:36:46.644Z,78.97
2018-03-03T17:39:21.188Z,81.53
2018-03-03T17:41:48.749Z,82.97
2018-03-03T17:44:16.265Z,83.20
2018-03-03T17:46:43.788Z,84.40
2018-03-03T17:49:12.192Z,79.85
2018-03-03T17:51:39.807Z,85.45
2018-03-03T17:54:08.072Z,83.10
2018-03-03T17:56:36.302Z,83.55
2018-03-03T17:59:04.083Z,82.45
2018-03-03T18:01:31.602Z,81.90
2018-03-03T18:03:59.866Z,86.85
2018-03-03T18:06:27.369Z,83.32
2018-03-03T18:08:54.854Z,82.57
2018-03-03T18:11:27.039Z,77.95
2018-03-03T18:13:59.774Z,84.62
2018-03-03T18:16:27.365Z,79.87
2018-03-03T18:18:55.617Z,80.65
2018-03-03T18:21:25.554Z,82.90
2018-03-03T18:23:53.290Z,88.53
2018-03-03T18:26:21.080Z,82.30
2018-03-03T18:28:49.081Z,82.55
2018-03-03T18:31:16.891Z,82.60
2018-03-03T18:33:45.341Z,85.10
2018-03-03T18:36:13.772Z,83.93
2018-03-03T18:38:41.250Z,77.23
2018-03-03T18:41:09.473Z,85.85
2018-03-03T18:46:41.752Z,87.85
2018-03-03T18:49:09.997Z,79.28
2018-03-03T18:51:37.799Z,87.47
2018-03-03T18:59:57.450Z,85.15
2018-03-03T19:02:25.891Z,80.90
2018-03-03T19:04:55.879Z,84.25
2018-03-03T19:07:24.325Z,84.40
2018-03-03T19:09:56.590Z,86.95
2018-03-03T19:12:27.616Z,76.72
2018-03-03T19:15:01.427Z,86.05
2018-03-03T19:17:29.020Z,81.93
2018-03-03T19:19:56.564Z,80.60
2018-03-03T19:22:26.340Z,86.57
2018-03-03T19:24:56.376Z,80.18
2018-03-03T19:27:27.284Z,89.07
2018-03-03T19:29:56.035Z,85.30
2018-03-03T19:32:26.295Z,84.65
2018-03-03T19:34:56.164Z,78.10
2018-03-03T19:37:26.901Z,85.12
2018-03-03T19:39:56.033Z,85.25
2018-03-03T19:42:23.933Z,85.90
2018-03-03T19:44:51.780Z,76.93
2018-03-03T19:47:19.275Z,75.73
2018-03-03T19:49:46.722Z,82.28
2018-03-03T19:52:15.442Z,82.93
2018-03-03T19:54:43.033Z,71.67
2018-03-03T19:57:10.511Z,81.63
2018-03-03T19:59:37.993Z,87.30
2018-03-03T20:02:06.258Z,84.70
2018-03-03T20:04:33.767Z,85.93
2018-03-03T20:07:01.350Z,85.80
2018-03-03T20:09:28.831Z,79.12
2018-03-03T20:11:56.342Z,73.90
2018-03-03T20:14:23.901Z,81.45
2018-03-03T20:16:52.166Z,89.13
2018-03-03T20:19:20.654Z,80.57
2018-03-03T20:21:48.154Z,85.45
2018-03-03T20:24:19.448Z,85.72
2018-03-03T20:26:47.716Z,87.00
2018-03-03T20:29:16.184Z,80.32
2018-03-03T20:31:43.704Z,84.43
2018-03-03T20:34:12.313Z,88.22
2018-03-03T20:36:39.802Z,86.12
2018-03-03T20:39:07.323Z,84.62
2018-03-03T20:41:34.820Z,75.27
2018-03-03T20:44:02.618Z,87.43
2018-03-03T20:46:30.096Z,83.35
2018-03-03T20:48:57.640Z,88.07
2018-03-03T20:51:26.041Z,88.32
2018-03-03T20:53:53.975Z,87.67
2018-03-03T20:56:21.528Z,77.62
2018-03-03T20:58:49.031Z,85.35
2018-03-03T21:01:17.292Z,83.45
2018-03-03T21:03:45.941Z,86.90
2018-03-03T21:06:14.368Z,78.07
2018-03-03T21:08:42.099Z,89.47
2018-03-03T21:14:12.345Z,89.75
2018-03-03T21:16:39.810Z,83.35
2018-03-03T21:19:08.114Z,87.05
2018-03-03T21:21:35.641Z,82.95
2018-03-03T21:24:03.311Z,89.43
2018-03-03T21:26:30.793Z,85.82
2018-03-03T21:28:58.292Z,84.93
2018-03-03T21:31:25.829Z,95.75
2018-03-03T21:33:55.385Z,89.00
2018-03-03T21:36:23.640Z,87.62
2018-03-03T21:38:51.202Z,94.05
2018-03-03T21:41:18.695Z,93.82
2018-03-03T21:43:46.304Z,92.22
2018-03-03T21:46:14.977Z,98.20
2018-03-03T21:48:43.757Z,95.53
2018-03-03T21:51:11.275Z,93.80
2018-03-03T21:53:38.784Z,89.65
2018-03-03T21:56:06.371Z,89.22
2018-03-03T21:58:33.862Z,99.05
2018-03-03T22:01:02.398Z,92.40
2018-03-03T22:03:29.888Z,82.17
2018-03-03T22:05:57.360Z,86.10
2018-03-03T22:08:25.181Z,92.93
2018-03-03T22:10:53.090Z,93.57
2018-03-03T22:13:21.419Z,90.68
2018-03-03T22:18:22.033Z,95.57
2018-03-03T22:20:49.576Z,84.97
2018-03-03T22:23:23.441Z,91.27
2018-03-03T22:25:53.807Z,96.05
2018-03-03T22:28:21.334Z,96.40
2018-03-03T22:30:48.865Z,92.40
2018-03-03T22:33:17.737Z,84.03
2018-03-03T22:41:23.233Z,91.55
2018-03-03T22:43:50.753Z,96.12
2018-03-03T22:46:18.251Z,93.07
2018-03-03T22:48:45.725Z,94.60
2018-03-03T22:51:13.257Z,90.60
2018-03-03T22:53:40.743Z,90.47
2018-03-03T22:56:09.064Z,87.37
2018-03-03T22:58:36.553Z,93.47
2018-03-03T23:01:14.138Z,94.65
2018-03-03T23:03:41.653Z,92.43
2018-03-03T23:06:09.225Z,95.70
2018-03-03T23:08:36.726Z,96.07
2018-03-03T23:11:05.090Z,96.93
2018-03-03T23:13:32.607Z,90.72
2018-03-03T23:16:00.106Z,94.97
2018-03-03T23:18:27.906Z,80.10
2018-03-03T23:20:56.484Z,95.50
2018-03-03T23:23:24.222Z,97.62
2018-03-03T23:25:51.702Z,82.35
2018-03-03T23:31:13.085Z,99.90
2018-03-03T23:33:40.594Z,81.87
2018-03-03T23:36:08.850Z,96.12
2018-03-03T23:41:30.363Z,99.03
2018-03-03T23:43:58.593Z,98.97
2018-03-03T23:46:26.530Z,98.65
2018-03-03T23:48:54.042Z,95.47
2018-03-03T23:51:21.534Z,97.80
2018-03-03T23:53:49.069Z,87.22
2018-03-03T23:56:17.500Z,89.05
2018-03-03T23:58:45.061Z,82.20
